Chihaya Maru — JG5612 — position and weather

sailwx.info

Track history (hours):
 
Tides and Currents Weather Stations Pressure Air Temp Water Temp Dewpoint Dewpoint Depression Visibility Wind Speed Wind Dir Waves Ship Positions

Chihaya Maru

Last reported at 2017-Oct-11 00:00 UTC. Time now 2017-Oct-18 16:39 UTC.
Position N 35°06' E 139°41'.

Length 135 m; draft 5.1 m.

Type: Cargo ship. MMSI: 431100906.

Date/timePositionNaut miles runAvg speedWind from/ knotsBaromVisibWave heightAir tempDewpointWater temp
2017-Oct-11 00:00N 35°06' E 139°41'612.1
2017-Oct-10 23:31N 35°10' E 139°45'612.4
2017-Oct-10 23:01N 35°17' E 139°45'612.8
2017-Oct-10 22:31N 35°22' E 139°42'612.6
2017-Oct-10 22:00N 35°27' E 139°47'10 4.6
2017-Oct-10 19:43N 35°37' E 139°50'0 0.0
2017-Oct-10 19:19N 35°37' E 139°50'0 0.0
2017-Oct-10 07:28N 35°37' E 139°50'0 0.0
2017-Oct-10 06:55N 35°37' E 139°50'0 0.0
2017-Oct-10 02:25N 35°37' E 139°50'0 0.2
2017-Oct-10 02:00N 35°37' E 139°49'4 8.7
2017-Oct-10 01:30N 35°33' E 139°51'612.1
2017-Oct-10 01:01N 35°27' E 139°51'510.5
2017-Oct-10 00:31N 35°22' E 139°50'1 1.3
2017-Oct-10 00:00N 35°22' E 139°51'0 0.0
2017-Oct-09 23:30N 35°22' E 139°51'0 0.0
2017-Oct-09 23:00N 35°22' E 139°51'0 0.0
2017-Oct-09 22:30N 35°22' E 139°51'0 0.0
2017-Oct-09 21:51N 35°22' E 139°51'0 0.0
2017-Oct-09 19:51N 35°22' E 139°51'0 0.0
2017-Oct-09 19:27N 35°22' E 139°51'0 0.0
2017-Oct-09 18:57N 35°22' E 139°51'0 0.0
2017-Oct-09 18:21N 35°22' E 139°51'0 0.0
2017-Oct-09 17:57N 35°22' E 139°51'0 0.0
2017-Oct-09 17:27N 35°22' E 139°51'0 0.0
2017-Oct-09 16:57N 35°22' E 139°51'0 0.0
2017-Oct-09 16:27N 35°22' E 139°51'0 0.0
2017-Oct-09 15:57N 35°22' E 139°51'0 0.0
2017-Oct-09 15:15N 35°22' E 139°51'0 0.0
2017-Oct-09 14:45N 35°22' E 139°51'0 0.0
2017-Oct-09 14:27N 35°22' E 139°51'0 0.0
2017-Oct-09 11:57N 35°22' E 139°51'0 0.0
2017-Oct-09 11:27N 35°22' E 139°51'0 0.0
2017-Oct-09 10:45N 35°22' E 139°51'0 0.0
2017-Oct-09 10:27N 35°22' E 139°51'0 0.0
2017-Oct-09 08:39N 35°22' E 139°51'0 0.0
2017-Oct-09 08:27N 35°22' E 139°51'0 0.2
2017-Oct-09 07:54N 35°22' E 139°51'3 6.7
2017-Oct-09 07:26N 35°25' E 139°50'13 0.6
2017-Oct-08 11:40N 35°34' E 140°00'4 6.0
2017-Oct-08 11:01N 35°32' E 139°57'0 9.6
2017-Oct-08 11:00N 35°32' E 139°57'612.0
2017-Oct-08 10:30N 35°28' E 139°51'611.5
2017-Oct-08 10:01N 35°22' E 139°49'1 2.4
2017-Oct-08 09:27N 35°22' E 139°51'0 0.0
2017-Oct-08 09:00N 35°22' E 139°51'0 0.0
2017-Oct-08 08:30N 35°22' E 139°51'0 0.0
2017-Oct-08 08:00N 35°22' E 139°51'0 0.0
2017-Oct-08 07:30N 35°22' E 139°51'0 0.0
2017-Oct-08 07:00N 35°22' E 139°51'0 0.0
2017-Oct-08 06:27N 35°22' E 139°51'0 0.0
2017-Oct-08 06:00N 35°22' E 139°51'0 0.0
2017-Oct-08 05:30N 35°22' E 139°51'0 0.0
2017-Oct-08 05:00N 35°22' E 139°51'0 0.0
2017-Oct-08 04:30N 35°22' E 139°51'0 0.0
2017-Oct-08 04:00N 35°22' E 139°51'0 0.0
2017-Oct-08 03:30N 35°22' E 139°51'0 0.0
2017-Oct-08 03:00N 35°22' E 139°51'0 0.0
2017-Oct-08 02:30N 35°22' E 139°51'0 0.0
2017-Oct-08 02:00N 35°22' E 139°51'0 0.0
2017-Oct-08 01:30N 35°22' E 139°51'0 0.0
2017-Oct-08 01:00N 35°22' E 139°51'0 0.0
2017-Oct-08 00:30N 35°22' E 139°51'0 0.0
2017-Oct-08 00:00N 35°22' E 139°51'0 0.0
2017-Oct-07 23:30N 35°22' E 139°51'0 0.0
2017-Oct-07 23:00N 35°22' E 139°51'0 0.0
2017-Oct-07 22:30N 35°22' E 139°51'1 2.3
2017-Oct-07 22:00N 35°22' E 139°49'4 7.6
2017-Oct-07 21:30N 35°21' E 139°45'510.3
2017-Oct-07 21:00N 35°16' E 139°46'611.9
2017-Oct-07 20:30N 35°10' E 139°47'612.0
2017-Oct-07 20:00N 35°04' E 139°46'612.5
2017-Oct-07 19:30N 34°58' E 139°43'611.6
2017-Oct-07 19:00N 34°53' E 139°40'711.1
2017-Oct-07 18:24N 34°47' E 139°36'1 3.2
2017-Oct-07 17:59N 34°48' E 139°35'4 6.9
2017-Oct-07 17:28N 34°50' E 139°38'810.5
2017-Oct-07 16:42N 34°47' E 139°47'310.5
2017-Oct-07 16:26N 34°46' E 139°50'4 4.5
2017-Oct-07 15:37N 34°42' E 139°49'  
Track history (hours):
 
Tides and Currents Weather Stations Pressure Air Temp Water Temp Dewpoint Dewpoint Depression Visibility Wind Speed Wind Dir Waves Ship Positions

Chihaya Maru

Last reported at 2017-Oct-11 00:00 UTC. Time now 2017-Oct-18 16:39 UTC.
Position N 35°06' E 139°41'.

Length 135 m; draft 5.1 m.

Type: Cargo ship. MMSI: 431100906.

Date/timePositionNaut miles runAvg speedWind from/ knotsBaromVisibWave heightAir tempDewpointWater temp
2017-Oct-11 00:00N 35°06' E 139°41'612.1
2017-Oct-10 23:31N 35°10' E 139°45'612.4
2017-Oct-10 23:01N 35°17' E 139°45'612.8
2017-Oct-10 22:31N 35°22' E 139°42'612.6
2017-Oct-10 22:00N 35°27' E 139°47'10 4.6
2017-Oct-10 19:43N 35°37' E 139°50'0 0.0
2017-Oct-10 19:19N 35°37' E 139°50'0 0.0
2017-Oct-10 07:28N 35°37' E 139°50'0 0.0
2017-Oct-10 06:55N 35°37' E 139°50'0 0.0
2017-Oct-10 02:25N 35°37' E 139°50'0 0.2
2017-Oct-10 02:00N 35°37' E 139°49'4 8.7
2017-Oct-10 01:30N 35°33' E 139°51'612.1
2017-Oct-10 01:01N 35°27' E 139°51'510.5
2017-Oct-10 00:31N 35°22' E 139°50'1 1.3
2017-Oct-10 00:00N 35°22' E 139°51'0 0.0
2017-Oct-09 23:30N 35°22' E 139°51'0 0.0
2017-Oct-09 23:00N 35°22' E 139°51'0 0.0
2017-Oct-09 22:30N 35°22' E 139°51'0 0.0
2017-Oct-09 21:51N 35°22' E 139°51'0 0.0
2017-Oct-09 19:51N 35°22' E 139°51'0 0.0
2017-Oct-09 19:27N 35°22' E 139°51'0 0.0
2017-Oct-09 18:57N 35°22' E 139°51'0 0.0
2017-Oct-09 18:21N 35°22' E 139°51'0 0.0
2017-Oct-09 17:57N 35°22' E 139°51'0 0.0
2017-Oct-09 17:27N 35°22' E 139°51'0 0.0
2017-Oct-09 16:57N 35°22' E 139°51'0 0.0
2017-Oct-09 16:27N 35°22' E 139°51'0 0.0
2017-Oct-09 15:57N 35°22' E 139°51'0 0.0
2017-Oct-09 15:15N 35°22' E 139°51'0 0.0
2017-Oct-09 14:45N 35°22' E 139°51'0 0.0
2017-Oct-09 14:27N 35°22' E 139°51'0 0.0
2017-Oct-09 11:57N 35°22' E 139°51'0 0.0
2017-Oct-09 11:27N 35°22' E 139°51'0 0.0
2017-Oct-09 10:45N 35°22' E 139°51'0 0.0
2017-Oct-09 10:27N 35°22' E 139°51'0 0.0
2017-Oct-09 08:39N 35°22' E 139°51'0 0.0
2017-Oct-09 08:27N 35°22' E 139°51'0 0.2
2017-Oct-09 07:54N 35°22' E 139°51'3 6.7
2017-Oct-09 07:26N 35°25' E 139°50'13 0.6
2017-Oct-08 11:40N 35°34' E 140°00'4 6.0
2017-Oct-08 11:01N 35°32' E 139°57'0 9.6
2017-Oct-08 11:00N 35°32' E 139°57'612.0
2017-Oct-08 10:30N 35°28' E 139°51'611.5
2017-Oct-08 10:01N 35°22' E 139°49'1 2.4
2017-Oct-08 09:27N 35°22' E 139°51'0 0.0
2017-Oct-08 09:00N 35°22' E 139°51'0 0.0
2017-Oct-08 08:30N 35°22' E 139°51'0 0.0
2017-Oct-08 08:00N 35°22' E 139°51'0 0.0
2017-Oct-08 07:30N 35°22' E 139°51'0 0.0
2017-Oct-08 07:00N 35°22' E 139°51'0 0.0
2017-Oct-08 06:27N 35°22' E 139°51'0 0.0
2017-Oct-08 06:00N 35°22' E 139°51'0 0.0
2017-Oct-08 05:30N 35°22' E 139°51'0 0.0
2017-Oct-08 05:00N 35°22' E 139°51'0 0.0
2017-Oct-08 04:30N 35°22' E 139°51'0 0.0
2017-Oct-08 04:00N 35°22' E 139°51'0 0.0
2017-Oct-08 03:30N 35°22' E 139°51'0 0.0
2017-Oct-08 03:00N 35°22' E 139°51'0 0.0
2017-Oct-08 02:30N 35°22' E 139°51'0 0.0
2017-Oct-08 02:00N 35°22' E 139°51'0 0.0
2017-Oct-08 01:30N 35°22' E 139°51'0 0.0
2017-Oct-08 01:00N 35°22' E 139°51'0 0.0
2017-Oct-08 00:30N 35°22' E 139°51'0 0.0
2017-Oct-08 00:00N 35°22' E 139°51'0 0.0
2017-Oct-07 23:30N 35°22' E 139°51'0 0.0
2017-Oct-07 23:00N 35°22' E 139°51'0 0.0
2017-Oct-07 22:30N 35°22' E 139°51'1 2.3
2017-Oct-07 22:00N 35°22' E 139°49'4 7.6
2017-Oct-07 21:30N 35°21' E 139°45'510.3
2017-Oct-07 21:00N 35°16' E 139°46'611.9
2017-Oct-07 20:30N 35°10' E 139°47'612.0
2017-Oct-07 20:00N 35°04' E 139°46'612.5
2017-Oct-07 19:30N 34°58' E 139°43'611.6
2017-Oct-07 19:00N 34°53' E 139°40'711.1
2017-Oct-07 18:24N 34°47' E 139°36'1 3.2
2017-Oct-07 17:59N 34°48' E 139°35'4 6.9
2017-Oct-07 17:28N 34°50' E 139°38'810.5
2017-Oct-07 16:42N 34°47' E 139°47'310.5
2017-Oct-07 16:26N 34°46' E 139°50'4 4.5
2017-Oct-07 15:37N 34°42' E 139°49'  

Dump ship's entire track history